Lobo

Go HERE for most recent data if this page is not up to date.

Jump to table bottom
Date/Time Temp deg F RH % 24 Hr Snow (in) Snow Depth (in) H2O (in)
11/28 22:00 0.5 73 0.1 30.8 0.00
11/28 21:00 0.0 67 0.1 30.8 0.00
11/28 20:00 1.6 69 0.1 30.9 0.00
11/28 19:00 0.4 65 0.2 31.0 0.00
11/28 18:00 0.9 62 0.0 31.0 0.00
11/28 17:00 2.6 59 -0.1 31.0 0.00
11/28 16:00 5.2 55 -0.2 30.9 0.00
11/28 15:00 6.7 49 -0.3 31.1 0.00
11/28 14:00 8.1 51 -0.4 31.2 0.00
11/28 13:00 8.6 51 2.7 31.1 0.00
11/28 12:00 6.8 56 3.1 31.3 0.00
11/28 11:00 5.4 44 3.4 31.5 0.00
11/28 10:00 3.1 47 3.5 31.5 0.00
11/28 09:00 2.8 57 3.5 31.6 0.00
11/28 08:00 1.4 58 3.6 31.9 0.00
11/28 07:00 2.5 52 3.6 32.0 0.00
11/28 06:00 2.4 57 3.8 32.2 0.00
11/28 05:00 3.3 70 3.7 32.1 0.00
11/28 04:00 4.3 70 3.7 32.3 0.00
11/28 03:00 4.7 82 3.9 32.3 0.00
11/28 02:00 5.6 79 3.8 32.5 0.01
11/28 01:00 6.7 84 3.9 32.4 0.01
11/28 00:00 7.4 81 3.5 32.4 0.03
11/27 23:00 8.0 82 3.0 31.9 0.04
11/27 22:00 9.5 82 2.3 31.4 0.04
11/27 21:00 14.9 85 1.1 29.8 0.04
11/27 20:00 16.8 75 0.4 29.7 0.00
11/27 19:00 16.8 78 0.2 29.6 0.00
11/27 18:00 16.7 75 0.1 29.7 0.00
11/27 17:00 16.8 72 0.1 29.7 0.00
11/27 16:00 17.7 71 -0.0 29.4 0.00
11/27 15:00 17.8 71 0.7 29.4 0.00
11/27 14:00 18.7 70 0.5 29.5 0.00
11/27 13:00 18.8 70 0.5 29.6 0.00
11/27 12:00 18.0 71 0.5 29.5 0.00
11/27 11:00 17.7 73 0.2 29.3 0.00
11/27 10:00 17.5 71 0.2 29.4 0.00
11/27 09:00 17.2 68 0.3 29.5 0.00
11/27 08:00 17.1 66 0.3 29.5 0.00
11/27 07:00 16.8 63 0.3 29.6 0.00
11/27 06:00 16.8 70 0.1 29.4 0.00
11/27 05:00 18.4 60 0.1 29.4 0.00
11/27 04:00 16.9 44 0.2 29.1 0.00
11/27 03:00 16.2 53 0.0 28.9 0.00
11/27 02:00 16.6 51 0.0 28.7 0.00
11/27 01:00 14.1 63 0.0 28.5 0.00
11/27 00:00 14.1 75 0.0 28.4 0.00
.